Unser Flugplatzteam

Segelflugzeugschlepp am Flugplatz Konstanz

Unsere freundlichen Mitarbeiter stehen Ihnen gerne mit Rat und Tat zur Seite:

Robert Leitner

Flugleiter, Landesbeauftragter für Luftaufsicht am Verkehrlandeplatz Konstanz

Minky Schweizer

Flugleiterin

Dieter Bauer

Flugleiter

Live am Platz

Die Bilder unserer Webcams werden alle 5 Minuten aktualisiert.

Sonnenaufgang:

07:04 UTC / 08:04 Lokal

Sonnenuntergang:

15:34 UTC / 16:34 Lokal

METAR (16.12.2018 05:20 UTC):

EDNY 160520Z 31004KT 2300 SN FEW010 SCT012 OVC020 M04/M04 Q1013
IFR

TAF (15.12.2018 23:00 UTC):

TAF EDNY 152300Z 1600/1624 VRB03KT CAVOK BECMG 1602/1605 4000 -SN SCT004 OVC012 TEMPO 1605/1608 1200 SN BKN004 BECMG 1608/1610 6000 BKN008 BECMG 1618/1620 4000 BR BECMG 1622/1624 2000 BKN004

Alle Angaben unverbindlich und ohne Gewähr. Zeiten genähert.

Für den Verkehrslandeplatz Konstanz werden keine offiziellen Wetterinformationen ausgegeben. Daher werden zur Orientierung Daten des nahegelegenen Flughafens Friedrichshafen dargestellt.

Flugwetterdaten zur Verfügung gestellt von wippich.aero.